A- A+ FrançaisEnglishEspañol中国

Services sur Internet Soldes sur Internet Des idées de cadeaux Météo Météo aéro

La météo à : Autours de vous Tarbes-Lourdes-PyrénéesLogne-Emerainville AlbertvillePau-Pyrénées

manche à air

La météo aéronautique pour les pilotes, la préparation du vol avec les METAR (METeorological Aerodrome Report, message d'observation des conditions météorologiques pour l'aviation) et Les TAF (Terminal Aerodrome Forecast : message de prévision à court terme des conditions météorologiques pour l'aviation). Et les autres ressources comme les VAC (Visual Approch Chart) et les NOTAM (Notice To Airman) pour préprer les vols.

Aéroport Braunschweig (Allemagne) / OACI EDVE/ IATA BWE

L'altitude de l'aéroport Braunschweig est de 90 m = 295 ft. Il est situé à proximité de Braunschweig (Allemagne). La météo générale à 5 jours est disponible pour Querum situé à 2.3 km.

METAR de l'aéroport Braunschweig - EDVE

EDVE 291150Z 20008KT 170V230 9999 BKN043 15/11 Q1001

Décodage du METAR de l'aéroport Braunschweig (DE)

METAR émis par EDVE le dimanche 29 septembre 2019 à 11:50 heure TU, il y a 37 minutes.

La visibilité est de supérieure à 10 km = supérieure à 6.2 sm.

La température est de 15°C = 59 °F et le point rosée est de 11°C = 52 °F . Ce qui correspond à 77% d'humidité relative.

Le QNH est de 1001 hPa = 29.56 inHg

Vent de 8 kt = 15 km/h, orienté à 200°.

Nuages : Couverture nuageuse fragmentée à 4300 ft = 1310 mètres.

TAF de l'aéroport Braunschweig - EDVE

EDVE 291100Z 2912/2921 19012KT 9999 BKN040 TEMPO 2912/2921 4000 RADZ BKN012

EDVE 291100Z 2912/2921 19012KT 9999 couverture nuageuse fragmentée à 040 temporairement 2912/2921 4000 pluie DZ couverture nuageuse fragmentée à 012

Aéroport à proximité de Braunschweig

Météo générale à 5 jours à Querum (2.3 km)Aéroport Salzgitter Druette (20 km)Aéroport Hildesheim (44 km)Aéroport Celle (47 km)Aéroport Celle Arloh (51 km)Aéroport Oscherleben (54 km)Aéroport Gardelegen (59 km)

Vue aérienne de l'aéroport Braunschweig

NOTAM de l'aéroport Braunschweig

Les NOTAM sont fournis sans aucune garantie de leur actualité. Le pilote est le seul responsable de la vérification de sa validité avant de l'utiliser opérationnellement pour préparer un vol ou l'utiliser lors de sa navigation.

Pas de NOTAM

Sources des données